createdAt,value
2019-04-22T00:01:41.565Z,36.90
2019-04-22T00:04:17.815Z,36.90
2019-04-22T00:07:07.105Z,36.90
2019-04-22T00:09:48.558Z,37.00
2019-04-22T00:12:13.727Z,37.00
2019-04-22T00:14:43.853Z,37.00
2019-04-22T00:17:25.125Z,37.00
2019-04-22T00:19:55.241Z,37.00
2019-04-22T00:22:22.136Z,37.00
2019-04-22T00:24:51.162Z,37.00
2019-04-22T00:27:27.903Z,37.00
2019-04-22T00:30:13.506Z,36.90
2019-04-22T00:32:58.997Z,36.90
2019-04-22T00:35:23.623Z,37.10
2019-04-22T00:38:09.345Z,37.10
2019-04-22T00:40:33.650Z,37.10
2019-04-22T00:42:58.718Z,37.10
2019-04-22T00:45:38.916Z,37.00
2019-04-22T00:48:09.114Z,37.00
2019-04-22T00:50:44.334Z,37.00
2019-04-22T00:53:20.195Z,37.10
2019-04-22T00:56:05.703Z,37.10
2019-04-22T00:58:37.891Z,37.20
2019-04-22T01:01:12.617Z,37.30
2019-04-22T01:03:47.504Z,37.30
2019-04-22T01:06:16.196Z,37.20
2019-04-22T01:08:53.759Z,37.30
2019-04-22T01:11:17.213Z,37.30
2019-04-22T01:13:47.020Z,37.30
2019-04-22T01:16:17.750Z,37.30
2019-04-22T01:18:52.289Z,37.30
2019-04-22T01:23:52.228Z,37.40
2019-04-22T01:26:20.244Z,37.50
2019-04-22T01:28:50.110Z,37.50
2019-04-22T01:31:17.751Z,37.50
2019-04-22T01:33:48.284Z,38.20
2019-04-22T01:36:35.337Z,37.50
2019-04-22T01:39:10.729Z,37.50
2019-04-22T01:41:51.705Z,37.50
2019-04-22T01:49:21.468Z,37.50
2019-04-22T01:54:34.071Z,37.60
2019-04-22T01:56:54.020Z,37.50
2019-04-22T01:59:15.431Z,37.50
2019-04-22T02:01:57.428Z,37.60
2019-04-22T02:04:33.591Z,37.50
2019-04-22T02:07:02.105Z,37.60
2019-04-22T02:12:11.585Z,37.70
2019-04-22T02:17:09.287Z,37.80
2019-04-22T02:19:35.742Z,37.70
2019-04-22T02:22:11.521Z,37.80
2019-04-22T02:27:20.198Z,37.90
2019-04-22T02:32:34.741Z,37.90
2019-04-22T02:39:57.651Z,38.00
2019-04-22T02:42:16.574Z,38.10
2019-04-22T02:44:53.247Z,38.00
2019-04-22T02:50:02.405Z,38.10
2019-04-22T02:52:34.845Z,38.10
2019-04-22T02:55:11.554Z,38.20
2019-04-22T02:57:35.197Z,38.10
2019-04-22T03:05:12.982Z,38.30
2019-04-22T03:07:44.220Z,38.30
2019-04-22T03:10:18.764Z,38.30
2019-04-22T03:15:32.886Z,38.40
2019-04-22T03:17:48.812Z,38.40
2019-04-22T03:22:57.888Z,38.50
2019-04-22T03:27:46.409Z,38.50
2019-04-22T03:30:47.617Z,38.50
2019-04-22T03:33:19.900Z,39.20
2019-04-22T03:38:08.515Z,38.60
2019-04-22T03:40:36.789Z,38.60
2019-04-22T03:48:05.364Z,38.60
2019-04-22T03:53:29.363Z,38.70
2019-04-22T03:58:28.585Z,38.70
2019-04-22T04:03:11.631Z,38.70
2019-04-22T04:08:23.391Z,38.80
2019-04-22T04:10:47.744Z,38.80
2019-04-22T04:18:33.080Z,38.80
2019-04-22T04:23:37.792Z,38.80
2019-04-22T04:26:27.012Z,38.80
2019-04-22T04:31:14.367Z,38.90
2019-04-22T04:33:38.198Z,38.90
2019-04-22T04:36:14.602Z,38.90
2019-04-22T04:38:51.746Z,38.80
2019-04-22T04:41:19.922Z,39.00
2019-04-22T04:43:46.577Z,38.90
2019-04-22T04:46:20.655Z,39.00
2019-04-22T04:48:51.150Z,39.00
2019-04-22T04:51:33.537Z,38.90
2019-04-22T04:53:41.435Z,39.00
2019-04-22T04:56:21.042Z,39.10
2019-04-22T05:01:23.112Z,39.00
2019-04-22T05:04:00.270Z,39.00
2019-04-22T05:09:14.773Z,39.50
2019-04-22T05:11:43.076Z,39.10
2019-04-22T05:18:57.304Z,39.10
2019-04-22T05:21:51.092Z,39.00
2019-04-22T05:24:14.933Z,39.00
2019-04-22T05:26:34.206Z,38.90
2019-04-22T05:29:06.605Z,39.00
2019-04-22T05:31:37.475Z,39.00
2019-04-22T05:34:11.187Z,39.00
2019-04-22T05:36:34.440Z,39.00
2019-04-22T05:39:06.133Z,39.00
2019-04-22T05:41:45.997Z,39.10
2019-04-22T05:44:32.876Z,39.10
2019-04-22T05:46:42.288Z,39.20
2019-04-22T05:49:19.249Z,39.20
2019-04-22T05:51:42.012Z,39.20
2019-04-22T05:57:05.523Z,39.30
2019-04-22T05:59:19.017Z,39.20
2019-04-22T06:04:25.711Z,39.30
2019-04-22T06:06:54.153Z,39.30
2019-04-22T06:09:30.215Z,39.30
2019-04-22T06:11:55.537Z,39.30
2019-04-22T06:14:32.853Z,39.40
2019-04-22T06:17:08.206Z,39.50
2019-04-22T06:19:38.596Z,39.50
2019-04-22T06:22:16.934Z,39.50
2019-04-22T06:24:43.051Z,39.40
2019-04-22T06:27:17.393Z,39.50
2019-04-22T06:29:41.399Z,39.50
2019-04-22T06:32:27.738Z,39.60
2019-04-22T06:34:48.706Z,39.60
2019-04-22T06:37:18.656Z,39.60
2019-04-22T06:40:10.180Z,39.60
2019-04-22T06:42:21.539Z,39.70
2019-04-22T06:44:54.982Z,39.60
2019-04-22T06:47:40.149Z,39.70
2019-04-22T06:49:57.307Z,39.70
2019-04-22T06:52:22.013Z,39.70
2019-04-22T06:55:06.096Z,39.70
2019-04-22T06:57:30.265Z,39.70
2019-04-22T07:00:08.387Z,39.70
2019-04-22T07:02:46.445Z,39.60
2019-04-22T07:05:12.088Z,39.70
2019-04-22T07:07:31.504Z,39.70
2019-04-22T07:10:17.820Z,39.80
2019-04-22T07:12:53.922Z,39.80
2019-04-22T07:15:16.205Z,39.70
2019-04-22T07:17:45.484Z,39.70
2019-04-22T07:20:18.002Z,39.70
2019-04-22T07:22:45.452Z,39.80
2019-04-22T07:25:15.999Z,39.90
2019-04-22T07:27:50.610Z,39.90
2019-04-22T07:30:22.210Z,39.70
2019-04-22T07:35:28.842Z,39.90
2019-04-22T07:37:48.628Z,39.90
2019-04-22T07:40:28.788Z,39.90
2019-04-22T07:42:57.473Z,39.90
2019-04-22T07:45:32.498Z,39.90
2019-04-22T07:48:17.384Z,40.00
2019-04-22T07:50:42.809Z,40.00
2019-04-22T07:53:05.417Z,40.00
2019-04-22T07:55:32.783Z,40.00
2019-04-22T07:58:16.759Z,40.10
2019-04-22T08:00:38.568Z,40.20
2019-04-22T08:03:22.658Z,40.20
2019-04-22T08:05:52.127Z,40.20
2019-04-22T08:08:24.958Z,40.30
2019-04-22T08:11:08.869Z,40.40
2019-04-22T08:13:23.420Z,40.40
2019-04-22T08:15:53.685Z,40.40
2019-04-22T08:18:32.905Z,40.30
2019-04-22T08:20:56.785Z,40.40
2019-04-22T08:23:33.929Z,40.50
2019-04-22T08:25:58.878Z,40.40
2019-04-22T08:28:31.952Z,40.40
2019-04-22T08:31:04.821Z,40.50
2019-04-22T08:33:33.386Z,40.60
2019-04-22T08:36:10.536Z,40.50
2019-04-22T08:38:39.561Z,40.40
2019-04-22T08:41:27.323Z,40.50
2019-04-22T08:43:57.604Z,40.50
2019-04-22T08:47:04.243Z,40.40
2019-04-22T08:59:09.809Z,40.40
2019-04-22T09:01:32.682Z,40.40
2019-04-22T09:06:49.406Z,40.30
2019-04-22T09:11:56.405Z,40.30
2019-04-22T09:14:16.615Z,40.30
2019-04-22T09:16:44.760Z,40.30
2019-04-22T09:19:12.631Z,40.20
2019-04-22T09:21:56.360Z,40.20
2019-04-22T09:24:16.681Z,40.30
2019-04-22T09:26:47.618Z,40.20
2019-04-22T09:32:01.871Z,40.30
2019-04-22T09:34:23.463Z,40.20
2019-04-22T09:36:58.675Z,40.20
2019-04-22T09:39:29.504Z,40.90
2019-04-22T09:41:58.181Z,40.20
2019-04-22T09:44:34.785Z,40.20
2019-04-22T09:46:59.940Z,40.30
2019-04-22T09:49:36.626Z,40.30
2019-04-22T09:52:08.541Z,40.20
2019-04-22T09:54:49.643Z,40.20
2019-04-22T09:57:09.006Z,40.20
2019-04-22T09:59:43.349Z,40.20
2019-04-22T10:04:46.689Z,40.20
2019-04-22T10:07:15.296Z,40.20
2019-04-22T10:12:23.148Z,40.30
2019-04-22T10:14:49.188Z,40.20
2019-04-22T10:17:21.851Z,40.20
2019-04-22T10:19:53.000Z,40.30
2019-04-22T10:22:27.955Z,40.20
2019-04-22T10:24:56.967Z,40.30
2019-04-22T10:27:26.151Z,40.30
2019-04-22T10:29:59.795Z,40.30
2019-04-22T10:32:33.386Z,40.40
2019-04-22T10:34:58.842Z,40.30
2019-04-22T10:37:23.940Z,40.30
2019-04-22T10:39:58.815Z,40.30
2019-04-22T10:42:25.235Z,40.40
2019-04-22T10:44:55.576Z,40.40
2019-04-22T10:47:25.818Z,40.40
2019-04-22T10:49:56.300Z,40.40
2019-04-22T10:52:27.561Z,40.30
2019-04-22T10:54:57.579Z,40.30
2019-04-22T10:57:29.764Z,40.30
2019-04-22T11:00:00.932Z,40.30
2019-04-22T11:02:31.787Z,40.30
2019-04-22T11:05:02.100Z,40.30
2019-04-22T11:07:39.720Z,40.20
2019-04-22T11:10:20.468Z,40.20
2019-04-22T11:12:36.216Z,40.20
2019-04-22T11:15:09.742Z,40.30
2019-04-22T11:17:39.890Z,40.20
2019-04-22T11:20:11.292Z,40.20
2019-04-22T11:22:42.580Z,40.30
2019-04-22T11:25:13.857Z,40.20
2019-04-22T11:27:44.437Z,40.20
2019-04-22T11:30:18.259Z,40.20
2019-04-22T11:32:48.593Z,40.30
2019-04-22T11:35:19.473Z,40.20
2019-04-22T11:37:50.668Z,40.20
2019-04-22T11:40:31.648Z,40.20
2019-04-22T11:42:54.422Z,40.10
2019-04-22T11:45:24.690Z,40.20
2019-04-22T11:47:55.250Z,40.10
2019-04-22T11:50:26.117Z,40.10
2019-04-22T11:52:56.317Z,40.20
2019-04-22T11:55:26.850Z,40.10
2019-04-22T11:57:56.862Z,40.20
2019-04-22T12:00:34.768Z,40.10
2019-04-22T12:03:05.214Z,40.20
2019-04-22T12:05:35.925Z,40.20
2019-04-22T12:08:07.070Z,40.20
2019-04-22T12:10:44.104Z,40.20
2019-04-22T12:13:10.303Z,40.20
2019-04-22T12:15:40.831Z,40.20
2019-04-22T12:18:11.345Z,40.20
2019-04-22T12:20:41.512Z,40.20
2019-04-22T12:23:12.731Z,40.20
2019-04-22T12:25:51.560Z,40.20
2019-04-22T12:28:15.077Z,40.20
2019-04-22T12:30:45.721Z,40.20
2019-04-22T12:33:17.038Z,40.30
2019-04-22T12:35:48.423Z,40.30
2019-04-22T12:38:20.191Z,40.30
2019-04-22T12:40:56.585Z,40.30
2019-04-22T12:43:23.881Z,40.30
2019-04-22T12:45:54.326Z,40.20
2019-04-22T12:48:25.415Z,40.30
2019-04-22T12:50:58.068Z,40.90
2019-04-22T12:53:28.010Z,40.20
2019-04-22T12:55:59.519Z,40.30
2019-04-22T12:58:29.859Z,40.30
2019-04-22T13:01:01.056Z,40.30
2019-04-22T13:03:32.010Z,40.30
2019-04-22T13:06:01.937Z,40.30
2019-04-22T13:08:31.816Z,40.30
2019-04-22T13:11:08.638Z,40.30
2019-04-22T13:13:34.466Z,40.30
2019-04-22T13:16:04.798Z,40.30
2019-04-22T13:18:42.032Z,40.30
2019-04-22T13:21:06.565Z,40.30
2019-04-22T13:23:36.935Z,40.30
2019-04-22T13:26:07.480Z,40.30
2019-04-22T13:28:38.861Z,40.30
2019-04-22T13:31:09.805Z,40.30
2019-04-22T13:33:40.917Z,40.30
2019-04-22T13:36:12.185Z,40.40
2019-04-22T13:38:42.922Z,40.40
2019-04-22T13:41:24.034Z,40.40
2019-04-22T13:43:44.981Z,40.40
2019-04-22T13:46:16.638Z,40.40
2019-04-22T13:49:14.679Z,40.40
2019-04-22T13:51:52.605Z,40.40
2019-04-22T13:54:42.291Z,40.40
2019-04-22T13:56:43.189Z,40.40
2019-04-22T13:59:01.848Z,40.50
2019-04-22T14:01:30.268Z,40.40
2019-04-22T14:04:18.604Z,40.50
2019-04-22T14:06:49.094Z,40.50
2019-04-22T14:09:20.319Z,40.50
2019-04-22T14:11:56.709Z,40.60
2019-04-22T14:14:22.135Z,40.50
2019-04-22T14:16:53.248Z,40.50
2019-04-22T14:19:23.752Z,40.50
2019-04-22T14:21:53.840Z,40.50
2019-04-22T14:24:23.887Z,40.50
2019-04-22T14:27:07.246Z,40.50
2019-04-22T14:29:26.026Z,40.50
2019-04-22T14:32:05.498Z,40.50
2019-04-22T14:34:28.547Z,40.50
2019-04-22T14:36:59.399Z,40.50
2019-04-22T14:39:30.353Z,40.60
2019-04-22T14:42:18.845Z,40.50
2019-04-22T14:47:25.699Z,40.50
2019-04-22T14:49:58.979Z,40.50
2019-04-22T14:52:30.712Z,40.50
2019-04-22T14:54:51.651Z,40.50
2019-04-22T14:57:10.798Z,40.50
2019-04-22T14:59:41.964Z,40.50
2019-04-22T15:02:13.863Z,40.50
2019-04-22T15:04:43.766Z,41.10
2019-04-22T15:07:14.867Z,40.50
2019-04-22T15:09:46.018Z,40.50
2019-04-22T15:12:25.959Z,40.50
2019-04-22T15:14:47.950Z,40.40
2019-04-22T15:17:47.125Z,40.50
2019-04-22T15:20:23.810Z,40.50
2019-04-22T15:22:54.741Z,40.50
2019-04-22T15:25:26.136Z,40.60
2019-04-22T15:27:57.348Z,40.60
2019-04-22T15:30:27.786Z,40.60
2019-04-22T15:32:59.028Z,40.60
2019-04-22T15:35:29.233Z,41.20
2019-04-22T15:37:59.315Z,40.60
2019-04-22T15:40:29.153Z,40.60
2019-04-22T15:42:59.250Z,40.60
2019-04-22T15:45:30.466Z,40.60
2019-04-22T15:48:01.981Z,40.60
2019-04-22T15:50:32.810Z,40.60
2019-04-22T15:53:04.566Z,40.60
2019-04-22T15:55:34.593Z,40.70
2019-04-22T15:58:05.765Z,40.60
2019-04-22T16:00:49.186Z,40.60
2019-04-22T16:03:10.451Z,40.70
2019-04-22T16:05:39.626Z,40.70
2019-04-22T16:08:10.844Z,40.60
2019-04-22T16:10:42.084Z,40.60
2019-04-22T16:13:20.176Z,40.70
2019-04-22T16:15:44.593Z,40.70
2019-04-22T16:18:15.132Z,41.40
2019-04-22T16:20:46.156Z,40.60
2019-04-22T16:23:40.800Z,40.60
2019-04-22T16:26:20.448Z,40.60
2019-04-22T16:28:52.736Z,40.60
2019-04-22T16:31:21.973Z,40.70
2019-04-22T16:33:52.477Z,40.80
2019-04-22T16:36:22.810Z,40.70
2019-04-22T16:38:53.242Z,40.70
2019-04-22T16:41:24.411Z,40.70
2019-04-22T16:43:54.463Z,40.70
2019-04-22T16:46:25.564Z,40.70
2019-04-22T16:48:55.978Z,40.70
2019-04-22T16:51:27.661Z,40.70
2019-04-22T16:53:58.013Z,40.70
2019-04-22T16:56:29.647Z,40.70
2019-04-22T16:58:59.375Z,41.40
2019-04-22T17:01:48.506Z,40.80
2019-04-22T17:04:55.890Z,40.80
2019-04-22T17:07:26.456Z,40.90
2019-04-22T17:09:57.593Z,40.90
2019-04-22T17:12:38.627Z,41.00
2019-04-22T17:15:05.725Z,41.00
2019-04-22T17:17:30.840Z,40.90
2019-04-22T17:20:00.654Z,41.00
2019-04-22T17:22:31.437Z,40.90
2019-04-22T17:25:02.639Z,40.80
2019-04-22T17:27:34.505Z,40.90
2019-04-22T17:30:06.345Z,40.90
2019-04-22T17:32:37.788Z,40.80
2019-04-22T17:35:10.293Z,40.80
2019-04-22T17:37:41.436Z,40.90
2019-04-22T17:40:30.387Z,40.90
2019-04-22T17:43:06.934Z,41.00
2019-04-22T17:45:49.337Z,41.30
2019-04-22T17:48:53.432Z,41.20
2019-04-22T17:51:31.143Z,41.10
2019-04-22T17:56:30.870Z,41.30
2019-04-22T17:59:03.923Z,41.30
2019-04-22T18:01:32.609Z,41.30
2019-04-22T18:03:50.942Z,41.30
2019-04-22T18:06:44.771Z,41.30
2019-04-22T18:09:04.953Z,41.30
2019-04-22T18:11:56.402Z,41.30
2019-04-22T18:14:30.290Z,41.40
2019-04-22T18:16:43.369Z,41.40
2019-04-22T18:19:16.764Z,41.30
2019-04-22T18:21:41.168Z,41.40
2019-04-22T18:24:08.115Z,41.40
2019-04-22T18:26:49.777Z,41.40
2019-04-22T18:29:24.023Z,41.40
2019-04-22T18:31:43.868Z,41.40
2019-04-22T18:34:19.102Z,41.40
2019-04-22T18:36:52.983Z,41.50
2019-04-22T18:39:38.900Z,41.60
2019-04-22T18:42:02.591Z,41.60
2019-04-22T18:44:35.199Z,41.60
2019-04-22T18:47:00.927Z,41.60
2019-04-22T18:49:37.640Z,41.60
2019-04-22T18:52:37.445Z,41.60
2019-04-22T18:55:26.722Z,41.60
2019-04-22T18:58:02.724Z,41.80
2019-04-22T19:00:23.468Z,41.80
2019-04-22T19:03:00.703Z,41.80
2019-04-22T19:05:42.657Z,41.80
2019-04-22T19:08:22.830Z,41.80
2019-04-22T19:11:02.275Z,41.80
2019-04-22T19:13:53.166Z,41.80
2019-04-22T19:16:09.716Z,42.00
2019-04-22T19:18:29.928Z,41.80
2019-04-22T19:21:01.262Z,41.80
2019-04-22T19:23:28.446Z,41.80
2019-04-22T19:25:58.642Z,41.80
2019-04-22T19:28:37.956Z,41.80
2019-04-22T19:31:09.284Z,41.90
2019-04-22T19:33:35.274Z,41.90
2019-04-22T19:36:10.712Z,41.90
2019-04-22T19:38:28.898Z,42.00
2019-04-22T19:41:18.561Z,42.00
2019-04-22T19:43:46.941Z,42.10
2019-04-22T19:46:07.197Z,42.20
2019-04-22T19:48:45.225Z,42.20
2019-04-22T19:51:25.722Z,42.30
2019-04-22T19:53:46.644Z,42.20
2019-04-22T19:56:11.294Z,42.20
2019-04-22T19:58:50.290Z,42.20
2019-04-22T20:01:47.211Z,42.30
2019-04-22T20:04:37.710Z,42.40
2019-04-22T20:07:12.821Z,42.40
2019-04-22T20:09:50.550Z,42.40
2019-04-22T20:12:16.429Z,42.50
2019-04-22T20:14:51.189Z,42.40
2019-04-22T20:17:24.464Z,42.50
2019-04-22T20:19:49.949Z,42.50
2019-04-22T20:22:28.301Z,42.50
2019-04-22T20:24:47.076Z,42.50
2019-04-22T20:27:30.327Z,42.40
2019-04-22T20:29:58.086Z,42.40
2019-04-22T20:32:26.282Z,42.50
2019-04-22T20:35:06.017Z,42.40
2019-04-22T20:37:37.065Z,42.50
2019-04-22T20:40:05.455Z,42.50
2019-04-22T20:42:57.004Z,43.20
2019-04-22T20:45:09.621Z,42.60
2019-04-22T20:47:34.055Z,42.80
2019-04-22T20:50:15.731Z,42.40
2019-04-22T20:52:48.732Z,42.90
2019-04-22T20:55:07.694Z,43.00
2019-04-22T20:57:47.996Z,43.00
2019-04-22T21:00:18.771Z,43.10
2019-04-22T21:02:37.457Z,43.10
2019-04-22T21:05:14.372Z,43.80
2019-04-22T21:07:49.882Z,43.80
2019-04-22T21:10:18.357Z,43.20
2019-04-22T21:12:43.486Z,43.20
2019-04-22T21:15:31.312Z,43.30
2019-04-22T21:17:56.884Z,43.90
2019-04-22T21:20:34.425Z,43.10
2019-04-22T21:23:02.607Z,43.80
2019-04-22T21:25:22.490Z,43.10
2019-04-22T21:28:04.456Z,43.20
2019-04-22T21:30:32.360Z,43.20
2019-04-22T21:33:05.523Z,43.20
2019-04-22T21:35:53.897Z,43.30
2019-04-22T21:38:15.176Z,43.40
2019-04-22T21:40:39.764Z,43.40
2019-04-22T21:43:18.633Z,43.40
2019-04-22T21:45:43.686Z,43.40
2019-04-22T21:48:27.938Z,43.40
2019-04-22T21:50:58.192Z,43.50
2019-04-22T21:53:22.623Z,43.50
2019-04-22T21:55:59.998Z,43.50
2019-04-22T21:58:48.302Z,43.50
2019-04-22T22:01:38.112Z,43.50
2019-04-22T22:04:00.513Z,43.60
2019-04-22T22:06:23.488Z,43.60
2019-04-22T22:09:02.493Z,43.70
2019-04-22T22:11:35.839Z,43.70
2019-04-22T22:14:06.597Z,43.80
2019-04-22T22:16:31.894Z,43.60
2019-04-22T22:19:25.603Z,43.70
2019-04-22T22:21:48.032Z,43.60
2019-04-22T22:24:18.490Z,43.70
2019-04-22T22:26:44.770Z,43.60
2019-04-22T22:29:23.625Z,43.10
2019-04-22T22:31:47.100Z,43.70
2019-04-22T22:34:18.622Z,43.70
2019-04-22T22:36:41.775Z,43.70
2019-04-22T22:39:14.171Z,43.60
2019-04-22T22:41:31.989Z,43.60
2019-04-22T22:44:08.960Z,43.70
2019-04-22T22:46:44.335Z,43.70
2019-04-22T22:49:28.788Z,43.70
2019-04-22T22:52:02.309Z,43.70
2019-04-22T22:54:33.110Z,43.70
2019-04-22T22:57:01.978Z,43.70
2019-04-22T22:59:33.370Z,43.70
2019-04-22T23:02:00.250Z,43.70
2019-04-22T23:04:41.063Z,43.70
2019-04-22T23:07:11.423Z,43.70
2019-04-22T23:09:41.860Z,43.70
2019-04-22T23:14:46.631Z,43.70
2019-04-22T23:17:01.115Z,43.70
2019-04-22T23:19:24.013Z,43.70
2019-04-22T23:21:58.812Z,43.70
2019-04-22T23:24:54.421Z,43.70
2019-04-22T23:27:34.558Z,43.70
2019-04-22T23:30:07.979Z,43.80
2019-04-22T23:32:35.679Z,43.90
2019-04-22T23:35:33.122Z,43.90
2019-04-22T23:38:08.356Z,43.80
2019-04-22T23:40:39.008Z,43.90
2019-04-22T23:43:17.931Z,43.90
2019-04-22T23:45:48.050Z,43.90
2019-04-22T23:48:11.172Z,43.80
2019-04-22T23:50:50.817Z,43.80
2019-04-22T23:53:55.530Z,43.70
2019-04-22T23:56:00.510Z,43.80
2019-04-22T23:58:49.210Z,44.10
